Time;durP1;ratioP1;P1;durP2;ratioP2;P2;SDS_P1;SDS_P2;PMS_P1;PMS_P2;Temp;Humidity;BMP_temperature;BMP_pressure;BME280_temperature;BME280_humidity;BME280_pressure;Samples;Min_cycle;Max_cycle;Signal;HPM_P1;HPM_P2
2023/02/20 00:03:55;;;;;;;51.00;39.25;;;;;;;;;;10009784;28;20096;-60
2023/02/20 00:08:49;;;;;;;49.92;36.72;;;;;;;;;;10008149;28;20574;-60
2023/02/20 00:13:49;;;;;;;43.17;36.05;;;;;;;;;;10004693;28;20042;-59
2023/02/20 00:18:44;;;;;;;46.55;35.72;;;;;;;;;;10000742;28;20061;-60
2023/02/20 00:23:38;;;;;;;48.38;36.75;;;;;;;;;;10008553;28;20046;-59
2023/02/20 00:28:31;;;;;;;44.75;34.70;;;;;;;;;;10006415;28;20050;-59
2023/02/20 00:33:24;;;;;;;48.05;37.20;;;;;;;;;;10006392;28;20046;-59
2023/02/20 00:38:18;;;;;;;48.17;35.83;;;;;;;;;;10006231;28;20038;-60
2023/02/20 00:43:12;;;;;;;55.83;40.40;;;;;;;;;;10004802;28;20060;-59
2023/02/20 00:48:05;;;;;;;46.28;37.50;;;;;;;;;;10010458;28;20474;-59
2023/02/20 00:52:58;;;;;;;50.00;40.88;;;;;;;;;;10023346;28;20062;-59
2023/02/20 00:57:51;;;;;;;51.10;37.50;;;;;;;;;;10021659;28;20060;-59
2023/02/20 01:02:47;;;;;;;50.40;39.78;;;;;;;;;;10024531;28;20054;-59
2023/02/20 01:07:41;;;;;;;45.10;37.20;;;;;;;;;;10024885;28;20069;-59
2023/02/20 01:12:34;;;;;;;50.80;39.95;;;;;;;;;;10025398;28;20120;-59
2023/02/20 01:17:27;;;;;;;53.80;41.33;;;;;;;;;;10028662;28;20034;-59
2023/02/20 01:22:21;;;;;;;56.33;41.70;;;;;;;;;;10031954;28;20061;-59
2023/02/20 01:27:14;;;;;;;62.42;42.65;;;;;;;;;;10032069;28;20114;-58
2023/02/20 01:32:06;;;;;;;54.25;40.80;;;;;;;;;;10030218;28;20145;-59
2023/02/20 01:37:02;;;;;;;53.17;38.45;;;;;;;;;;10025202;28;20450;-58
2023/02/20 01:42:00;;;;;;;49.08;38.13;;;;;;;;;;10030774;28;20507;-58
2023/02/20 01:46:58;;;;;;;59.78;41.13;;;;;;;;;;10024029;28;20043;-58
2023/02/20 01:51:57;;;;;;;53.70;38.88;;;;;;;;;;10021937;28;20137;-58
2023/02/20 01:56:52;;;;;;;62.35;42.40;;;;;;;;;;10030001;28;20563;-58
2023/02/20 02:01:45;;;;;;;57.95;40.15;;;;;;;;;;10013618;28;20058;-58
2023/02/20 02:06:41;;;;;;;63.35;42.65;;;;;;;;;;10023510;28;20049;-58
2023/02/20 02:11:36;;;;;;;59.35;41.60;;;;;;;;;;10029341;28;20053;-59
2023/02/20 02:16:44;;;;;;;61.25;44.20;;;;;;;;;;10029850;28;20104;-59
2023/02/20 02:22:07;;;;;;;59.95;42.95;;;;;;;;;;10028804;28;20042;-59
2023/02/20 02:27:15;;;;;;;66.20;44.22;;;;;;;;;;10020068;28;20049;-59
2023/02/20 02:32:08;;;;;;;61.23;43.57;;;;;;;;;;10028532;28;20038;-59
2023/02/20 02:37:15;;;;;;;57.70;42.17;;;;;;;;;;10028685;28;20045;-59
2023/02/20 02:42:36;;;;;;;61.95;46.13;;;;;;;;;;10025247;28;20042;-59
2023/02/20 02:47:43;;;;;;;60.40;42.80;;;;;;;;;;10002875;28;20046;-59
2023/02/20 02:52:49;;;;;;;58.83;42.88;;;;;;;;;;10025454;28;20100;-58
2023/02/20 02:57:42;;;;;;;54.63;41.25;;;;;;;;;;10029248;28;20048;-59
2023/02/20 03:03:05;;;;;;;60.30;45.75;;;;;;;;;;10028461;28;20049;-59
2023/02/20 03:07:58;;;;;;;55.63;39.90;;;;;;;;;;10004690;28;20069;-58
2023/02/20 03:12:52;;;;;;;56.30;43.05;;;;;;;;;;10024724;28;20450;-59
2023/02/20 03:17:57;;;;;;;63.10;42.25;;;;;;;;;;10026488;28;20092;-59
2023/02/20 03:22:55;;;;;;;56.10;43.05;;;;;;;;;;10026363;28;20057;-59
2023/02/20 03:28:00;;;;;;;55.58;41.00;;;;;;;;;;10026332;28;20498;-58
2023/02/20 03:43:42;;;;;;;57.08;42.03;;;;;;;;;;10012387;28;20497;-59
2023/02/20 03:48:44;;;;;;;59.92;41.50;;;;;;;;;;10014262;28;20068;-59
2023/02/20 03:53:42;;;;;;;59.47;42.45;;;;;;;;;;10007243;28;20050;-59
2023/02/20 03:58:39;;;;;;;51.25;40.08;;;;;;;;;;10007338;28;20046;-59
2023/02/20 04:03:37;;;;;;;60.17;42.13;;;;;;;;;;10025653;28;20050;-59
2023/02/20 04:08:35;;;;;;;53.88;40.35;;;;;;;;;;10006824;28;20042;-58
2023/02/20 04:13:30;;;;;;;51.55;39.88;;;;;;;;;;9994741;28;20521;-58
2023/02/20 04:18:23;;;;;;;55.05;40.28;;;;;;;;;;10012085;28;20470;-58
2023/02/20 04:23:18;;;;;;;58.47;41.70;;;;;;;;;;10024206;28;20042;-58
2023/02/20 04:28:11;;;;;;;42.78;32.58;;;;;;;;;;10004885;28;20058;-58
2023/02/20 04:33:17;;;;;;;52.08;35.92;;;;;;;;;;10009524;28;20104;-58
2023/02/20 04:38:12;;;;;;;53.17;37.70;;;;;;;;;;10022209;28;20054;-58
2023/02/20 04:43:06;;;;;;;48.67;34.63;;;;;;;;;;10018366;28;20396;-58
2023/02/20 04:48:00;;;;;;;42.90;33.95;;;;;;;;;;10022938;28;20157;-58
2023/02/20 04:52:53;;;;;;;49.20;34.63;;;;;;;;;;10031055;28;20499;-58
2023/02/20 04:57:49;;;;;;;42.83;32.92;;;;;;;;;;10031567;28;20050;-58
2023/02/20 05:02:42;;;;;;;43.88;34.03;;;;;;;;;;10032126;28;20046;-58
2023/02/20 05:07:36;;;;;;;49.38;35.40;;;;;;;;;;10032663;28;20466;-58
2023/02/20 05:12:29;;;;;;;47.45;38.25;;;;;;;;;;10032709;28;20566;-59
2023/02/20 05:17:23;;;;;;;47.65;35.25;;;;;;;;;;10032830;28;20045;-59
2023/02/20 05:22:21;;;;;;;53.55;35.13;;;;;;;;;;10031968;28;20073;-59
2023/02/20 05:27:18;;;;;;;41.58;32.85;;;;;;;;;;10031990;28;20045;-59
2023/02/20 05:32:12;;;;;;;54.38;36.47;;;;;;;;;;10025183;28;20046;-58
2023/02/20 05:37:05;;;;;;;46.65;34.70;;;;;;;;;;10030547;28;20061;-58
2023/02/20 05:41:58;;;;;;;48.33;36.55;;;;;;;;;;10026775;28;20046;-58
2023/02/20 05:46:55;;;;;;;45.97;35.88;;;;;;;;;;10029610;28;20062;-59
2023/02/20 05:51:49;;;;;;;48.38;36.72;;;;;;;;;;10013590;28;20129;-58
2023/02/20 05:56:42;;;;;;;55.92;40.92;;;;;;;;;;10012615;28;20053;-59
2023/02/20 06:01:35;;;;;;;51.72;39.67;;;;;;;;;;10013414;28;20052;-57
2023/02/20 06:06:38;;;;;;;50.75;37.13;;;;;;;;;;10017627;28;21035;-59
2023/02/20 06:11:31;;;;;;;50.13;37.13;;;;;;;;;;10014329;28;20409;-58
2023/02/20 06:16:29;;;;;;;48.28;37.88;;;;;;;;;;10009962;28;20388;-58
2023/02/20 06:21:24;;;;;;;46.72;38.67;;;;;;;;;;10014204;28;20052;-57
2023/02/20 06:26:18;;;;;;;47.90;37.35;;;;;;;;;;10024369;28;20057;-58
2023/02/20 06:31:12;;;;;;;54.67;37.28;;;;;;;;;;10029433;28;20081;-60
2023/02/20 06:36:06;;;;;;;47.30;36.05;;;;;;;;;;10030180;28;20049;-59
2023/02/20 06:40:59;;;;;;;51.88;39.53;;;;;;;;;;10029623;28;20446;-60
2023/02/20 07:04:50;;;;;;;51.33;39.28;;;;;;;;;;9749808;29;20056;-60
2023/02/20 07:09:44;;;;;;;47.50;35.38;;;;;;;;;;9885938;29;20055;-59
2023/02/20 07:14:37;;;;;;;44.30;33.28;;;;;;;;;;9892683;28;20051;-60
2023/02/20 07:19:31;;;;;;;38.70;31.77;;;;;;;;;;9896017;28;20044;-59
2023/02/20 07:24:25;;;;;;;40.58;32.45;;;;;;;;;;9892715;29;20054;-59
2023/02/20 07:29:19;;;;;;;41.42;29.20;;;;;;;;;;10007256;28;20060;-60
2023/02/20 07:34:12;;;;;;;41.40;27.02;;;;;;;;;;10025357;28;20045;-59
2023/02/20 07:39:05;;;;;;;35.67;27.40;;;;;;;;;;10020425;28;20104;-59
2023/02/20 07:44:00;;;;;;;33.38;26.40;;;;;;;;;;10028091;28;20513;-59
2023/02/20 07:48:54;;;;;;;30.08;24.15;;;;;;;;;;10019616;28;20082;-58
2023/02/20 07:53:52;;;;;;;35.85;26.55;;;;;;;;;;10018631;28;20514;-58
2023/02/20 07:58:45;;;;;;;35.72;28.33;;;;;;;;;;10027718;28;20053;-58
2023/02/20 08:03:39;;;;;;;40.47;26.38;;;;;;;;;;10025131;28;20069;-58
2023/02/20 08:08:33;;;;;;;43.47;28.70;;;;;;;;;;10019329;28;20463;-58
2023/02/20 08:13:26;;;;;;;35.03;27.25;;;;;;;;;;10020772;28;20057;-58
2023/02/20 08:18:19;;;;;;;37.92;28.63;;;;;;;;;;10018660;28;20452;-58
2023/02/20 08:23:18;;;;;;;33.35;26.40;;;;;;;;;;10019499;28;20065;-58
2023/02/20 08:28:11;;;;;;;31.17;26.15;;;;;;;;;;10013116;28;20118;-58
2023/02/20 08:33:05;;;;;;;38.05;26.17;;;;;;;;;;10025466;28;20620;-58
2023/02/20 08:37:58;;;;;;;31.70;25.98;;;;;;;;;;10026510;28;20046;-58
2023/02/20 08:42:55;;;;;;;31.13;26.10;;;;;;;;;;10020146;28;20072;-58
2023/02/20 08:47:48;;;;;;;32.85;25.73;;;;;;;;;;10017571;28;20038;-58
2023/02/20 08:52:43;;;;;;;31.40;26.52;;;;;;;;;;10019545;28;20473;-58
2023/02/20 08:57:35;;;;;;;31.20;25.92;;;;;;;;;;10025417;28;20123;-58
2023/02/20 09:02:29;;;;;;;33.30;28.63;;;;;;;;;;10025715;28;20472;-59
2023/02/20 09:07:23;;;;;;;33.53;27.67;;;;;;;;;;10026082;28;20054;-58
2023/02/20 09:12:17;;;;;;;32.55;26.70;;;;;;;;;;10025977;28;20422;-58
2023/02/20 09:17:11;;;;;;;35.20;27.30;;;;;;;;;;10025679;28;20470;-58
2023/02/20 09:22:04;;;;;;;32.80;26.25;;;;;;;;;;10023927;28;20046;-58
2023/02/20 09:26:58;;;;;;;31.83;27.10;;;;;;;;;;10024984;28;20129;-58
2023/02/20 09:31:51;;;;;;;35.05;26.70;;;;;;;;;;10024593;28;20419;-59
2023/02/20 09:36:44;;;;;;;44.08;27.63;;;;;;;;;;10026780;28;20046;-59
2023/02/20 09:41:40;;;;;;;34.53;26.38;;;;;;;;;;10032832;28;20384;-58
2023/02/20 09:46:34;;;;;;;29.58;24.70;;;;;;;;;;10029988;28;20125;-59
2023/02/20 09:51:30;;;;;;;34.03;24.58;;;;;;;;;;10028535;28;20058;-58
2023/02/20 09:56:35;;;;;;;33.08;24.90;;;;;;;;;;10028516;28;20089;-59
2023/02/20 10:01:29;;;;;;;32.75;24.27;;;;;;;;;;10028406;28;20524;-58
2023/02/20 10:06:28;;;;;;;34.30;25.42;;;;;;;;;;10029981;28;20070;-58
2023/02/20 10:11:35;;;;;;;32.97;25.48;;;;;;;;;;10029366;28;20056;-59
2023/02/20 10:16:38;;;;;;;34.20;27.17;;;;;;;;;;10029589;28;20042;-58
2023/02/20 10:21:39;;;;;;;30.90;26.58;;;;;;;;;;10013427;28;20441;-58
2023/02/20 10:26:36;;;;;;;33.22;28.60;;;;;;;;;;10031050;28;20053;-59
2023/02/20 10:31:52;;;;;;;36.83;27.80;;;;;;;;;;10029451;28;20117;-58
2023/02/20 10:36:50;;;;;;;36.22;28.63;;;;;;;;;;10018005;28;20058;-58
2023/02/20 10:41:55;;;;;;;34.73;27.53;;;;;;;;;;10030015;28;20056;-59
2023/02/20 10:46:57;;;;;;;40.92;27.85;;;;;;;;;;10029967;28;20058;-59
2023/02/20 10:51:52;;;;;;;35.63;26.65;;;;;;;;;;10028601;28;20113;-59
2023/02/20 10:56:56;;;;;;;36.63;27.13;;;;;;;;;;10029567;28;20050;-59
2023/02/20 11:01:55;;;;;;;39.70;26.60;;;;;;;;;;10029848;28;20563;-59
2023/02/20 11:06:54;;;;;;;33.97;26.73;;;;;;;;;;10017311;28;20104;-59
2023/02/20 11:11:48;;;;;;;34.95;27.50;;;;;;;;;;10017989;28;20058;-58
2023/02/20 11:16:53;;;;;;;37.53;25.55;;;;;;;;;;10016276;28;20060;-59
2023/02/20 11:21:49;;;;;;;30.08;23.67;;;;;;;;;;10011521;28;20057;-59
2023/02/20 11:26:42;;;;;;;34.80;26.65;;;;;;;;;;10014605;28;20160;-59
2023/02/20 11:31:35;;;;;;;38.90;25.02;;;;;;;;;;10018341;28;20451;-59
2023/02/20 11:36:41;;;;;;;41.35;25.63;;;;;;;;;;10027306;28;20521;-58
2023/02/20 11:41:35;;;;;;;31.92;22.98;;;;;;;;;;10026368;28;20094;-59
2023/02/20 11:46:29;;;;;;;36.72;23.33;;;;;;;;;;10026431;28;20061;-59
2023/02/20 11:51:47;;;;;;;33.78;22.33;;;;;;;;;;10027906;28;20062;-59
2023/02/20 11:57:14;;;;;;;35.67;25.10;;;;;;;;;;10014183;28;20128;-59
2023/02/20 12:02:16;;;;;;;40.47;28.00;;;;;;;;;;10026761;28;20093;-59
2023/02/20 12:07:29;;;;;;;42.90;28.20;;;;;;;;;;10026996;28;20042;-58
2023/02/20 12:12:23;;;;;;;39.40;27.10;;;;;;;;;;10001799;28;20061;-58
2023/02/20 12:17:20;;;;;;;42.15;26.20;;;;;;;;;;10026680;28;20487;-58
2023/02/20 12:22:30;;;;;;;39.83;29.05;;;;;;;;;;10017013;28;20066;-59
2023/02/20 12:27:34;;;;;;;38.40;30.05;;;;;;;;;;10013829;28;20141;-58
2023/02/20 12:32:53;;;;;;;41.30;29.60;;;;;;;;;;10005252;28;20134;-58
2023/02/20 12:37:59;;;;;;;44.50;32.15;;;;;;;;;;9994278;28;20061;-58
2023/02/20 12:43:10;;;;;;;35.90;26.75;;;;;;;;;;10013142;28;20051;-57
2023/02/20 12:48:38;;;;;;;39.58;29.23;;;;;;;;;;10023557;28;20061;-58
2023/02/20 12:53:53;;;;;;;44.72;32.47;;;;;;;;;;10024632;28;20058;-59
2023/02/20 12:58:55;;;;;;;41.63;31.58;;;;;;;;;;10014563;28;20074;-59
2023/02/20 13:03:55;;;;;;;44.35;34.70;;;;;;;;;;10021304;28;20503;-59
2023/02/20 13:08:59;;;;;;;44.55;33.53;;;;;;;;;;10018115;28;20057;-58
2023/02/20 13:14:04;;;;;;;41.80;31.08;;;;;;;;;;10017256;28;20053;-59
2023/02/20 13:19:24;;;;;;;43.63;29.08;;;;;;;;;;10021176;28;20048;-59
2023/02/20 13:24:20;;;;;;;41.75;30.38;;;;;;;;;;10029141;28;20466;-58
2023/02/20 13:29:19;;;;;;;45.15;31.17;;;;;;;;;;10027244;28;20565;-59
2023/02/20 13:34:14;;;;;;;38.60;30.67;;;;;;;;;;10028313;28;20081;-58
2023/02/20 13:39:22;;;;;;;36.92;28.52;;;;;;;;;;10023723;28;20073;-58
2023/02/20 13:44:42;;;;;;;45.28;31.45;;;;;;;;;;10025729;28;20129;-58
2023/02/20 13:49:51;;;;;;;46.90;32.88;;;;;;;;;;10024658;28;20141;-59
2023/02/20 13:54:44;;;;;;;48.28;34.30;;;;;;;;;;10018883;28;20607;-58
2023/02/20 13:59:39;;;;;;;43.13;30.60;;;;;;;;;;10025514;28;20495;-58
2023/02/20 14:04:33;;;;;;;42.42;28.27;;;;;;;;;;10023773;28;20054;-59
2023/02/20 14:09:31;;;;;;;45.60;30.77;;;;;;;;;;10018766;28;20041;-58
2023/02/20 14:14:30;;;;;;;34.83;27.23;;;;;;;;;;10012838;28;20057;-58
2023/02/20 14:19:25;;;;;;;36.20;28.13;;;;;;;;;;10019815;28;20049;-58
2023/02/20 14:24:19;;;;;;;38.75;29.23;;;;;;;;;;10023426;28;20065;-58
2023/02/20 14:29:37;;;;;;;37.70;27.67;;;;;;;;;;10024861;28;20050;-59
2023/02/20 14:34:36;;;;;;;41.17;31.02;;;;;;;;;;10025531;28;20056;-59
2023/02/20 14:39:46;;;;;;;36.27;26.27;;;;;;;;;;10028847;28;20034;-58
2023/02/20 14:44:39;;;;;;;33.67;26.73;;;;;;;;;;10027449;28;20844;-59
2023/02/20 14:49:33;;;;;;;36.47;27.50;;;;;;;;;;10030364;28;20066;-59
2023/02/20 14:54:28;;;;;;;37.53;27.10;;;;;;;;;;10029268;28;20137;-59
2023/02/20 14:59:28;;;;;;;39.38;28.17;;;;;;;;;;10029454;28;20050;-59
2023/02/20 15:04:22;;;;;;;;;;;;;;;;;;10029750;28;20076;-59
2023/02/20 15:09:15;;;;;;;37.13;26.13;;;;;;;;;;10028870;28;19929;-59
2023/02/20 15:14:22;;;;;;;31.83;24.42;;;;;;;;;;10027985;28;20107;-58
2023/02/20 15:19:33;;;;;;;35.97;25.75;;;;;;;;;;10017942;28;20065;-58
2023/02/20 15:24:30;;;;;;;34.92;23.60;;;;;;;;;;10022088;28;20053;-58
2023/02/20 15:29:26;;;;;;;42.13;26.05;;;;;;;;;;10027028;28;20466;-58
2023/02/20 15:34:25;;;;;;;34.60;24.63;;;;;;;;;;10027347;28;20399;-58
2023/02/20 15:39:18;;;;;;;;;;;;;;;;;;10028519;28;20045;-58
2023/02/20 15:44:11;;;;;;;47.42;30.67;;;;;;;;;;10028114;28;19927;-59
2023/02/20 15:49:05;;;;;;;38.08;27.00;;;;;;;;;;10027168;28;20085;-58
2023/02/20 15:53:58;;;;;;;40.15;28.83;;;;;;;;;;10027249;28;20062;-58
2023/02/20 15:58:51;;;;;;;37.38;27.02;;;;;;;;;;10027267;28;20054;-58
2023/02/20 16:03:46;;;;;;;43.75;28.25;;;;;;;;;;10027243;28;20470;-58
2023/02/20 16:08:45;;;;;;;39.08;25.38;;;;;;;;;;10011816;28;20049;-58
2023/02/20 16:13:42;;;;;;;38.13;26.33;;;;;;;;;;10026611;28;20510;-58
2023/02/20 16:18:35;;;;;;;41.47;26.65;;;;;;;;;;10026482;28;20410;-59
2023/02/20 16:23:29;;;;;;;36.53;26.55;;;;;;;;;;10024298;28;20062;-59
2023/02/20 16:28:22;;;;;;;44.13;26.02;;;;;;;;;;10025539;28;20080;-59
2023/02/20 16:33:17;;;;;;;38.53;25.33;;;;;;;;;;10026004;28;20461;-58
2023/02/20 16:38:11;;;;;;;37.63;27.02;;;;;;;;;;10025433;28;20058;-58
2023/02/20 16:43:05;;;;;;;46.83;28.38;;;;;;;;;;10025540;28;20848;-59
2023/02/20 16:47:58;;;;;;;43.50;26.92;;;;;;;;;;10030718;28;20084;-58
2023/02/20 16:52:52;;;;;;;39.03;26.33;;;;;;;;;;10033442;28;20057;-58
2023/02/20 16:57:45;;;;;;;40.78;27.73;;;;;;;;;;10033322;28;20057;-59
2023/02/20 17:02:39;;;;;;;43.10;31.65;;;;;;;;;;10033333;28;20049;-59
2023/02/20 17:07:31;;;;;;;45.45;29.25;;;;;;;;;;10031345;28;20058;-58
2023/02/20 17:12:25;;;;;;;42.13;29.42;;;;;;;;;;10033174;28;20507;-58
2023/02/20 17:17:20;;;;;;;46.20;30.08;;;;;;;;;;10033156;28;20050;-58
2023/02/20 17:22:13;;;;;;;47.55;29.60;;;;;;;;;;10031711;28;20072;-58
2023/02/20 17:27:07;;;;;;;45.03;30.98;;;;;;;;;;10032275;28;20054;-58
2023/02/20 17:32:00;;;;;;;41.10;28.25;;;;;;;;;;10025620;28;20528;-59
2023/02/20 17:36:53;;;;;;;41.83;27.90;;;;;;;;;;10025316;28;20120;-59
2023/02/20 17:41:58;;;;;;;44.85;27.38;;;;;;;;;;10027294;28;20050;-59
2023/02/20 17:46:51;;;;;;;37.03;27.27;;;;;;;;;;10027647;28;20108;-59
2023/02/20 17:51:45;;;;;;;42.03;28.75;;;;;;;;;;10028353;28;20122;-59
2023/02/20 17:56:42;;;;;;;48.85;32.58;;;;;;;;;;10025917;28;20050;-59
2023/02/20 18:01:36;;;;;;;56.92;38.92;;;;;;;;;;10016117;28;20049;-59
2023/02/20 18:06:29;;;;;;;46.22;32.17;;;;;;;;;;10027435;28;20492;-60
2023/02/20 18:11:23;;;;;;;50.28;32.60;;;;;;;;;;10026741;28;20134;-58
2023/02/20 18:16:16;;;;;;;53.90;36.40;;;;;;;;;;10026758;28;20570;-60
2023/02/20 18:21:50;;;;;;;56.42;36.35;;;;;;;;;;10014356;28;20042;-60
2023/02/20 18:26:44;;;;;;;54.38;35.53;;;;;;;;;;10023461;28;20046;-60
2023/02/20 18:31:38;;;;;;;50.88;34.92;;;;;;;;;;10026987;28;20045;-61
2023/02/20 18:36:31;;;;;;;56.00;39.20;;;;;;;;;;10026299;28;20454;-60
2023/02/20 18:41:25;;;;;;;55.10;38.78;;;;;;;;;;10026617;28;20050;-61
2023/02/20 18:46:28;;;;;;;53.35;36.90;;;;;;;;;;10025442;28;20049;-60
2023/02/20 18:51:37;;;;;;;55.13;35.95;;;;;;;;;;10013983;28;20077;-60
2023/02/20 18:56:31;;;;;;;54.95;37.47;;;;;;;;;;10003652;28;20084;-60
2023/02/20 19:01:25;;;;;;;54.97;38.80;;;;;;;;;;10002996;28;20136;-60
2023/02/20 19:06:33;;;;;;;53.22;36.83;;;;;;;;;;10015270;28;20621;-60
2023/02/20 19:11:27;;;;;;;48.47;35.50;;;;;;;;;;10004269;28;20042;-61
2023/02/20 19:16:20;;;;;;;54.83;36.50;;;;;;;;;;10005350;28;20872;-60
2023/02/20 19:21:14;;;;;;;54.10;35.45;;;;;;;;;;10019672;28;20056;-59
2023/02/20 19:26:08;;;;;;;47.13;32.75;;;;;;;;;;10018292;28;20060;-59
2023/02/20 19:31:01;;;;;;;46.58;35.17;;;;;;;;;;10022006;28;20054;-59
2023/02/20 19:35:55;;;;;;;51.95;34.53;;;;;;;;;;10024096;28;20434;-59
2023/02/20 19:40:49;;;;;;;54.63;36.13;;;;;;;;;;10024064;28;20134;-59
2023/02/20 19:45:42;;;;;;;57.28;36.20;;;;;;;;;;10014269;28;20108;-59
2023/02/20 19:50:37;;;;;;;51.30;36.42;;;;;;;;;;10023872;28;20054;-61
2023/02/20 19:55:31;;;;;;;55.35;37.28;;;;;;;;;;10020951;28;20053;-59
2023/02/20 20:00:27;;;;;;;54.38;37.97;;;;;;;;;;10003460;28;20049;-60
2023/02/20 20:05:22;;;;;;;53.83;37.63;;;;;;;;;;10007383;28;20061;-59
2023/02/20 20:10:21;;;;;;;52.33;36.87;;;;;;;;;;10005225;28;20462;-59
2023/02/20 20:15:23;;;;;;;55.50;38.17;;;;;;;;;;10008223;28;20057;-58
2023/02/20 20:20:16;;;;;;;;;;;;;;;;;;10012946;28;20054;-58
2023/02/20 20:25:10;;;;;;;53.92;38.05;;;;;;;;;;10007213;28;20463;-58
2023/02/20 20:30:06;;;;;;;61.00;40.83;;;;;;;;;;10006869;28;20054;-61
2023/02/20 20:34:59;;;;;;;55.88;38.85;;;;;;;;;;10010444;28;20101;-60
2023/02/20 20:39:53;;;;;;;54.67;37.45;;;;;;;;;;10012018;28;20565;-61
2023/02/20 20:44:47;;;;;;;54.92;37.45;;;;;;;;;;10004359;28;20057;-62
2023/02/20 20:49:40;;;;;;;52.58;37.95;;;;;;;;;;10008520;28;20054;-61
2023/02/20 20:54:34;;;;;;;59.97;39.83;;;;;;;;;;9994883;28;20058;-58
2023/02/20 20:59:28;;;;;;;57.42;38.25;;;;;;;;;;10006034;28;20511;-60
2023/02/20 21:04:22;;;;;;;51.75;36.20;;;;;;;;;;10003825;28;20108;-61
2023/02/20 21:09:16;;;;;;;57.90;36.47;;;;;;;;;;10013023;28;20060;-60
2023/02/20 21:14:09;;;;;;;63.33;45.03;;;;;;;;;;10003709;28;20499;-60
2023/02/20 21:19:02;;;;;;;77.20;51.42;;;;;;;;;;10002828;28;20050;-61
2023/02/20 21:23:56;;;;;;;77.75;54.58;;;;;;;;;;9998943;28;20054;-60
2023/02/20 21:28:50;;;;;;;69.75;48.20;;;;;;;;;;9994769;28;20041;-61
2023/02/20 21:33:54;;;;;;;68.13;48.95;;;;;;;;;;10001553;28;20050;-60
2023/02/20 21:38:47;;;;;;;67.32;46.42;;;;;;;;;;10013674;28;20042;-60
2023/02/20 21:48:57;;;;;;;69.45;46.33;;;;;;;;;;10017331;28;20107;-60
2023/02/20 21:53:52;;;;;;;73.22;50.45;;;;;;;;;;10016080;28;20054;-60
